Home   Weather   USA   Wichita   Past weeks
Flag for USA

Past Weather in Wichita, Kansas, USA — October 2019

Currently: 86 °F. Scattered clouds. (Weather station: Wichita Eisenhower National Airport, USA). See more current weather

October 2019 Weather in Wichita — Graph

°F

High & Low Weather Summary for October 2019

 TemperatureHumidityPressure
High91 °F (Oct 1, 2:53 pm)97% (Oct 15, 5:08 am)30.39 "Hg (Oct 15, 5:08 am)
Low19 °F (Oct 31, 6:53 am)19% (Oct 31, 4:53 pm)29.54 "Hg (Oct 20, 3:53 pm)
Average54 °F63%30.02 "Hg
* Reported Oct 1 12:53 am — Oct 31 11:53 pm, Wichita. Weather by CustomWeather, © 2022

Note: Actual official high and low records may vary slightly from our data, if they occured in-between our weather recording intervals... More about our weather records

Wichita Weather History for October 1, 2019

Scroll right to see more
 ConditionsComfort  
Time TempWeatherWind HumidityBarometerVisibility
12:53 am
Tue, Oct 1
77 °FPassing clouds.20 mph79%29.84 "Hg10 mi
1:53 am76 °FPassing clouds.20 mph82%29.84 "Hg10 mi
2:53 am76 °FClear.20 mph80%29.84 "Hg10 mi
3:53 am76 °FPassing clouds.18 mph80%29.84 "Hg10 mi
4:53 am76 °FPassing clouds.17 mph77%29.85 "Hg10 mi
5:53 am76 °FPassing clouds.21 mph77%29.85 "Hg10 mi
6:53 am75 °FPassing clouds.15 mph79%29.87 "Hg10 mi
7:53 am75 °FScattered clouds.16 mph82%29.87 "Hg10 mi
8:53 am78 °FScattered clouds.17 mph76%29.88 "Hg10 mi
9:53 am79 °FPartly sunny.20 mph77%29.88 "Hg10 mi
10:53 am82 °FPartly sunny.25 mph70%29.88 "Hg10 mi
11:53 am84 °FBroken clouds.18 mph65%29.88 "Hg10 mi
12:53 pm88 °FPartly sunny.25 mph57%29.85 "Hg10 mi
1:53 pm88 °FBroken clouds.22 mph55%29.83 "Hg10 mi
2:53 pm91 °FPartly sunny.29 mph50%29.80 "Hg10 mi
3:53 pm90 °FBroken clouds.30 mph50%29.77 "Hg10 mi
4:53 pm87 °FBroken clouds.26 mph53%29.78 "Hg10 mi
5:53 pm86 °FPartly sunny.22 mph53%29.78 "Hg10 mi
6:53 pm75 °FLight rain. Partly sunny.10 mph82%29.83 "Hg10 mi
7:53 pm75 °FPassing clouds.7 mph82%29.84 "Hg10 mi
8:53 pm75 °FOvercast.8 mph82%29.83 "Hg10 mi
9:53 pm74 °FOvercast.3 mph85%29.86 "Hg10 mi
10:53 pm75 °FMostly cloudy.No wind79%29.84 "Hg10 mi
11:53 pm75 °FMostly cloudy.3 mph79%29.84 "Hg10 mi
Weather by CustomWeather, © 2022

See weather overview